sensor_id;sensor_type;location;lat;lon;timestamp;pressure;altitude;pressure_sealevel;temperature;humidity
29197;BME280;62796;42.654;23.316;2023-04-19T00:00:29;94191.19;;;12.93;54.76
29197;BME280;62796;42.654;23.316;2023-04-19T00:02:55;94186.13;;;12.97;54.33
29197;BME280;62796;42.654;23.316;2023-04-19T00:05:21;94185.09;;;13.00;54.32
29197;BME280;62796;42.654;23.316;2023-04-19T00:07:49;94186.13;;;12.97;54.29
29197;BME280;62796;42.654;23.316;2023-04-19T00:10:14;94184.59;;;13.01;53.72
29197;BME280;62796;42.654;23.316;2023-04-19T00:12:40;94182.84;;;12.98;53.88
29197;BME280;62796;42.654;23.316;2023-04-19T00:15:06;94179.06;;;12.96;54.13
29197;BME280;62796;42.654;23.316;2023-04-19T00:17:32;94187.91;;;12.94;54.11
29197;BME280;62796;42.654;23.316;2023-04-19T00:19:57;94176.78;;;12.94;54.36
29197;BME280;62796;42.654;23.316;2023-04-19T00:22:23;94168.69;;;12.91;54.22
29197;BME280;62796;42.654;23.316;2023-04-19T00:24:48;94178.03;;;12.99;54.24
29197;BME280;62796;42.654;23.316;2023-04-19T00:27:14;94168.41;;;13.00;53.90
29197;BME280;62796;42.654;23.316;2023-04-19T00:29:39;94172.72;;;13.01;53.60
29197;BME280;62796;42.654;23.316;2023-04-19T00:32:05;94173.97;;;13.00;53.94
29197;BME280;62796;42.654;23.316;2023-04-19T00:34:30;94167.16;;;13.01;53.76
29197;BME280;62796;42.654;23.316;2023-04-19T00:36:56;94173.72;;;13.03;53.71
29197;BME280;62796;42.654;23.316;2023-04-19T00:39:22;94169.94;;;13.01;53.83
29197;BME280;62796;42.654;23.316;2023-04-19T00:41:47;94167.66;;;12.99;53.94
29197;BME280;62796;42.654;23.316;2023-04-19T00:44:13;94162.84;;;13.00;53.96
29197;BME280;62796;42.654;23.316;2023-04-19T00:46:39;94165.16;;;12.96;53.98
29197;BME280;62796;42.654;23.316;2023-04-19T00:49:05;94164.91;;;12.94;54.33
29197;BME280;62796;42.654;23.316;2023-04-19T00:51:30;94159.34;;;12.94;54.15
29197;BME280;62796;42.654;23.316;2023-04-19T00:53:56;94164.41;;;12.90;54.61
29197;BME280;62796;42.654;23.316;2023-04-19T00:56:22;94165.91;;;12.91;54.63
29197;BME280;62796;42.654;23.316;2023-04-19T00:58:50;94157.34;;;12.89;54.81
29197;BME280;62796;42.654;23.316;2023-04-19T01:01:15;94162.13;;;12.88;55.18
29197;BME280;62796;42.654;23.316;2023-04-19T01:03:43;94154.06;;;12.90;55.00
29197;BME280;62796;42.654;23.316;2023-04-19T01:06:08;94153.31;;;12.90;55.02
29197;BME280;62796;42.654;23.316;2023-04-19T01:08:33;94156.09;;;12.90;55.24
29197;BME280;62796;42.654;23.316;2023-04-19T01:10:59;94144.19;;;12.95;54.96
29197;BME280;62796;42.654;23.316;2023-04-19T01:13:24;94149.25;;;12.91;54.71
29197;BME280;62796;42.654;23.316;2023-04-19T01:15:52;94145.47;;;12.88;54.72
29197;BME280;62796;42.654;23.316;2023-04-19T01:18:17;94149.00;;;12.89;54.69
29197;BME280;62796;42.654;23.316;2023-04-19T01:20:43;94149.78;;;12.84;54.88
29197;BME280;62796;42.654;23.316;2023-04-19T01:23:08;94145.03;;;12.62;55.38
29197;BME280;62796;42.654;23.316;2023-04-19T01:25:36;94154.13;;;12.57;55.65
29197;BME280;62796;42.654;23.316;2023-04-19T01:28:02;94151.84;;;12.61;55.27
29197;BME280;62796;42.654;23.316;2023-04-19T01:30:27;94148.03;;;12.64;55.22
29197;BME280;62796;42.654;23.316;2023-04-19T01:32:53;94147.03;;;12.67;54.83
29197;BME280;62796;42.654;23.316;2023-04-19T01:35:18;94154.88;;;12.68;54.88
29197;BME280;62796;42.654;23.316;2023-04-19T01:37:43;94152.31;;;12.70;54.99
29197;BME280;62796;42.654;23.316;2023-04-19T01:40:09;94151.56;;;12.70;54.90
29197;BME280;62796;42.654;23.316;2023-04-19T01:42:35;94147.53;;;12.71;54.80
29197;BME280;62796;42.654;23.316;2023-04-19T01:45:00;94149.78;;;12.72;54.96
29197;BME280;62796;42.654;23.316;2023-04-19T01:47:26;94146.78;;;12.70;55.15
29197;BME280;62796;42.654;23.316;2023-04-19T01:49:51;94147.53;;;12.71;55.28
29197;BME280;62796;42.654;23.316;2023-04-19T01:52:16;94145.53;;;12.66;55.55
29197;BME280;62796;42.654;23.316;2023-04-19T01:54:42;94143.47;;;12.66;55.65
29197;BME280;62796;42.654;23.316;2023-04-19T01:57:07;94143.47;;;12.66;55.41
29197;BME280;62796;42.654;23.316;2023-04-19T01:59:32;94133.66;;;12.65;55.69
29197;BME280;62796;42.654;23.316;2023-04-19T02:01:58;94139.44;;;12.67;55.47
29197;BME280;62796;42.654;23.316;2023-04-19T02:04:23;94134.91;;;12.64;55.76
29197;BME280;62796;42.654;23.316;2023-04-19T02:06:49;94145.78;;;12.62;56.12
29197;BME280;62796;42.654;23.316;2023-04-19T02:09:14;94138.94;;;12.63;55.64
29197;BME280;62796;42.654;23.316;2023-04-19T02:11:40;94137.94;;;12.61;56.01
29197;BME280;62796;42.654;23.316;2023-04-19T02:14:05;94133.19;;;12.50;56.65
29197;BME280;62796;42.654;23.316;2023-04-19T02:16:31;94130.16;;;12.48;56.45
29197;BME280;62796;42.654;23.316;2023-04-19T02:18:56;94144.78;;;12.54;56.44
29197;BME280;62796;42.654;23.316;2023-04-19T02:21:22;94143.28;;;12.53;56.60
29197;BME280;62796;42.654;23.316;2023-04-19T02:23:48;94140.25;;;12.51;56.55
29197;BME280;62796;42.654;23.316;2023-04-19T02:26:13;94140.25;;;12.40;56.59
29197;BME280;62796;42.654;23.316;2023-04-19T02:28:39;94143.81;;;12.35;56.97
29197;BME280;62796;42.654;23.316;2023-04-19T02:31:05;94142.28;;;12.34;56.89
29197;BME280;62796;42.654;23.316;2023-04-19T02:33:30;94141.78;;;12.30;56.66
29197;BME280;62796;42.654;23.316;2023-04-19T02:35:56;94133.72;;;12.21;57.15
29197;BME280;62796;42.654;23.316;2023-04-19T02:38:21;94130.44;;;12.11;57.23
29197;BME280;62796;42.654;23.316;2023-04-19T02:40:47;94126.38;;;11.96;57.83
29197;BME280;62796;42.654;23.316;2023-04-19T02:43:12;94115.28;;;11.85;58.02
29197;BME280;62796;42.654;23.316;2023-04-19T02:45:38;94126.63;;;11.87;58.09
29197;BME280;62796;42.654;23.316;2023-04-19T02:48:04;94129.66;;;11.89;58.03
29197;BME280;62796;42.654;23.316;2023-04-19T02:50:30;94128.66;;;11.92;58.29
29197;BME280;62796;42.654;23.316;2023-04-19T02:52:56;94127.91;;;11.97;58.00
29197;BME280;62796;42.654;23.316;2023-04-19T02:55:22;94133.94;;;11.95;57.90
29197;BME280;62796;42.654;23.316;2023-04-19T02:57:47;94134.47;;;11.94;57.50
29197;BME280;62796;42.654;23.316;2023-04-19T03:00:13;94137.25;;;11.94;57.70
29197;BME280;62796;42.654;23.316;2023-04-19T03:02:40;94131.69;;;11.94;57.88
29197;BME280;62796;42.654;23.316;2023-04-19T03:05:05;94141.28;;;11.93;57.69
29197;BME280;62796;42.654;23.316;2023-04-19T03:07:31;94136.50;;;11.88;57.91
29197;BME280;62796;42.654;23.316;2023-04-19T03:09:56;94134.72;;;11.96;57.56
29197;BME280;62796;42.654;23.316;2023-04-19T03:12:22;94133.19;;;11.95;57.31
29197;BME280;62796;42.654;23.316;2023-04-19T03:14:47;94134.97;;;11.92;57.70
29197;BME280;62796;42.654;23.316;2023-04-19T03:17:13;94136.25;;;11.97;57.28
29197;BME280;62796;42.654;23.316;2023-04-19T03:19:39;94134.97;;;11.87;57.48
29197;BME280;62796;42.654;23.316;2023-04-19T03:22:04;94129.94;;;11.80;57.73
29197;BME280;62796;42.654;23.316;2023-04-19T03:24:30;94135.72;;;11.82;57.88
29197;BME280;62796;42.654;23.316;2023-04-19T03:26:56;94135.47;;;11.85;57.54
29197;BME280;62796;42.654;23.316;2023-04-19T03:29:22;94135.22;;;11.89;57.88
29197;BME280;62796;42.654;23.316;2023-04-19T03:31:47;94130.19;;;11.93;57.74
29197;BME280;62796;42.654;23.316;2023-04-19T03:34:13;94135.47;;;11.96;57.71
29197;BME280;62796;42.654;23.316;2023-04-19T03:36:39;94129.69;;;11.94;57.57
29197;BME280;62796;42.654;23.316;2023-04-19T03:39:05;94140.03;;;11.99;57.55
29197;BME280;62796;42.654;23.316;2023-04-19T03:41:30;94138.00;;;12.00;57.65
29197;BME280;62796;42.654;23.316;2023-04-19T03:43:55;94132.47;;;12.00;57.36
29197;BME280;62796;42.654;23.316;2023-04-19T03:46:22;94131.19;;;12.01;57.20
29197;BME280;62796;42.654;23.316;2023-04-19T03:48:48;94135.00;;;12.03;57.34
29197;BME280;62796;42.654;23.316;2023-04-19T03:51:13;94126.38;;;12.01;57.42
29197;BME280;62796;42.654;23.316;2023-04-19T03:53:40;94129.69;;;12.00;57.16
29197;BME280;62796;42.654;23.316;2023-04-19T03:56:05;94129.16;;;12.01;56.77
29197;BME280;62796;42.654;23.316;2023-04-19T03:58:30;94129.41;;;11.92;57.13
29197;BME280;62796;42.654;23.316;2023-04-19T04:00:57;94112.53;;;11.79;57.17
29197;BME280;62796;42.654;23.316;2023-04-19T04:03:23;94125.34;;;11.71;57.60
29197;BME280;62796;42.654;23.316;2023-04-19T04:05:48;94131.16;;;11.68;57.65
29197;BME280;62796;42.654;23.316;2023-04-19T04:08:14;94126.59;;;11.64;57.87
29197;BME280;62796;42.654;23.316;2023-04-19T04:10:39;94126.09;;;11.66;57.92
29197;BME280;62796;42.654;23.316;2023-04-19T04:13:05;94129.38;;;11.64;58.01
29197;BME280;62796;42.654;23.316;2023-04-19T04:15:30;94129.63;;;11.55;57.87
29197;BME280;62796;42.654;23.316;2023-04-19T04:17:55;94131.38;;;11.58;58.03
29197;BME280;62796;42.654;23.316;2023-04-19T04:20:21;94136.16;;;11.63;57.95
29197;BME280;62796;42.654;23.316;2023-04-19T04:22:46;94125.84;;;11.58;58.23
29197;BME280;62796;42.654;23.316;2023-04-19T04:25:12;94131.88;;;11.57;57.99
29197;BME280;62796;42.654;23.316;2023-04-19T04:27:40;94134.41;;;11.55;58.22
29197;BME280;62796;42.654;23.316;2023-04-19T04:30:07;94130.34;;;11.50;58.42
29197;BME280;62796;42.654;23.316;2023-04-19T04:32:33;94151.81;;;11.55;58.24
29197;BME280;62796;42.654;23.316;2023-04-19T04:35:06;94138.44;;;11.59;57.99
29197;BME280;62796;42.654;23.316;2023-04-19T04:37:32;94140.69;;;11.55;58.33
29197;BME280;62796;42.654;23.316;2023-04-19T04:39:59;94150.28;;;11.54;58.25
29197;BME280;62796;42.654;23.316;2023-04-19T04:42:24;94145.50;;;11.55;58.55
29197;BME280;62796;42.654;23.316;2023-04-19T04:44:50;94142.94;;;11.46;58.27
29197;BME280;62796;42.654;23.316;2023-04-19T04:47:16;94155.56;;;11.52;58.34
29197;BME280;62796;42.654;23.316;2023-04-19T04:49:41;94142.72;;;11.49;58.33
29197;BME280;62796;42.654;23.316;2023-04-19T04:52:07;94146.97;;;11.50;58.17
29197;BME280;62796;42.654;23.316;2023-04-19T04:54:33;94133.63;;;11.43;58.33
29197;BME280;62796;42.654;23.316;2023-04-19T04:56:59;94149.28;;;11.57;57.96
29197;BME280;62796;42.654;23.316;2023-04-19T04:59:25;94143.97;;;11.59;58.32
29197;BME280;62796;42.654;23.316;2023-04-19T05:01:51;94150.81;;;11.64;57.81
29197;BME280;62796;42.654;23.316;2023-04-19T05:04:17;94160.38;;;11.57;57.80
29197;BME280;62796;42.654;23.316;2023-04-19T05:06:42;94144.19;;;11.50;57.86
29197;BME280;62796;42.654;23.316;2023-04-19T05:09:09;94153.53;;;11.53;57.99
29197;BME280;62796;42.654;23.316;2023-04-19T05:11:35;94151.50;;;11.48;58.19
29197;BME280;62796;42.654;23.316;2023-04-19T05:14:01;94154.81;;;11.46;58.14
29197;BME280;62796;42.654;23.316;2023-04-19T05:16:26;94159.34;;;11.49;58.45
29197;BME280;62796;42.654;23.316;2023-04-19T05:18:52;94151.00;;;11.44;58.68
29197;BME280;62796;42.654;23.316;2023-04-19T05:21:17;94153.00;;;11.38;58.43
29197;BME280;62796;42.654;23.316;2023-04-19T05:23:43;94151.00;;;11.44;58.37
29197;BME280;62796;42.654;23.316;2023-04-19T05:26:08;94159.34;;;11.49;58.44
29197;BME280;62796;42.654;23.316;2023-04-19T05:28:40;94157.34;;;11.55;58.35
29197;BME280;62796;42.654;23.316;2023-04-19T05:31:05;94161.88;;;11.58;58.36
29197;BME280;62796;42.654;23.316;2023-04-19T05:33:31;94167.69;;;11.60;58.59
29197;BME280;62796;42.654;23.316;2023-04-19T05:35:56;94165.94;;;11.68;58.26
29197;BME280;62796;42.654;23.316;2023-04-19T05:38:22;94155.59;;;11.69;57.95
29197;BME280;62796;42.654;23.316;2023-04-19T05:40:47;94168.25;;;11.70;58.16
29197;BME280;62796;42.654;23.316;2023-04-19T05:43:12;94167.16;;;11.62;58.05
29197;BME280;62796;42.654;23.316;2023-04-19T05:45:38;94153.06;;;11.60;58.34
29197;BME280;62796;42.654;23.316;2023-04-19T05:48:03;94159.63;;;11.62;58.26
29197;BME280;62796;42.654;23.316;2023-04-19T05:50:30;94167.69;;;11.66;58.37
29197;BME280;62796;42.654;23.316;2023-04-19T05:52:56;94159.69;;;11.74;58.22
29197;BME280;62796;42.654;23.316;2023-04-19T05:55:21;94164.97;;;11.72;58.41
29197;BME280;62796;42.654;23.316;2023-04-19T05:57:47;94169.00;;;11.71;58.58
29197;BME280;62796;42.654;23.316;2023-04-19T06:00:12;94165.94;;;11.68;58.54
29197;BME280;62796;42.654;23.316;2023-04-19T06:02:38;94171.28;;;11.72;58.79
29197;BME280;62796;42.654;23.316;2023-04-19T06:05:04;94173.81;;;11.81;58.33
29197;BME280;62796;42.654;23.316;2023-04-19T06:07:29;94176.06;;;11.83;57.87
29197;BME280;62796;42.654;23.316;2023-04-19T06:09:55;94169.78;;;11.88;58.11
29197;BME280;62796;42.654;23.316;2023-04-19T06:12:21;94172.56;;;11.88;58.17
29197;BME280;62796;42.654;23.316;2023-04-19T06:14:46;94166.25;;;11.87;57.93
29197;BME280;62796;42.654;23.316;2023-04-19T06:17:11;94171.28;;;11.89;57.84
29197;BME280;62796;42.654;23.316;2023-04-19T06:19:38;94170.78;;;12.01;57.92
29197;BME280;62796;42.654;23.316;2023-04-19T06:22:03;94180.13;;;12.04;57.29
29197;BME280;62796;42.654;23.316;2023-04-19T06:24:29;94167.53;;;12.08;56.96
29197;BME280;62796;42.654;23.316;2023-04-19T06:26:56;94182.94;;;12.09;57.17
29197;BME280;62796;42.654;23.316;2023-04-19T06:29:21;94169.06;;;12.15;57.16
29197;BME280;62796;42.654;23.316;2023-04-19T06:31:48;94176.13;;;12.27;56.86
29197;BME280;62796;42.654;23.316;2023-04-19T06:34:14;94169.03;;;12.26;56.51
29197;BME280;62796;42.654;23.316;2023-04-19T06:36:39;94173.09;;;12.36;55.93
29197;BME280;62796;42.654;23.316;2023-04-19T06:39:05;94176.13;;;12.38;56.00
29197;BME280;62796;42.654;23.316;2023-04-19T06:41:31;94180.66;;;12.41;55.82
29197;BME280;62796;42.654;23.316;2023-04-19T06:43:56;94175.63;;;12.45;55.83
29197;BME280;62796;42.654;23.316;2023-04-19T06:46:21;94179.38;;;12.53;55.22
29197;BME280;62796;42.654;23.316;2023-04-19T06:48:47;94181.63;;;12.60;55.26
29197;BME280;62796;42.654;23.316;2023-04-19T06:51:12;94178.59;;;12.69;54.94
29197;BME280;62796;42.654;23.316;2023-04-19T06:53:37;94180.81;;;12.88;54.76
29197;BME280;62796;42.654;23.316;2023-04-19T06:56:03;94182.59;;;12.91;54.60
29197;BME280;62796;42.654;23.316;2023-04-19T06:58:29;94186.84;;;13.03;53.88
29197;BME280;62796;42.654;23.316;2023-04-19T07:00:59;94186.34;;;13.15;53.55
29197;BME280;62796;42.654;23.316;2023-04-19T07:03:25;94187.59;;;13.25;53.60
29197;BME280;62796;42.654;23.316;2023-04-19T07:05:51;94185.75;;;13.39;53.43
29197;BME280;62796;42.654;23.316;2023-04-19T07:08:17;94184.16;;;13.55;52.71
29197;BME280;62796;42.654;23.316;2023-04-19T07:10:42;94180.56;;;13.65;52.62
29197;BME280;62796;42.654;23.316;2023-04-19T07:13:09;94178.38;;;13.47;52.35
29197;BME280;62796;42.654;23.316;2023-04-19T07:15:35;94186.91;;;13.60;51.94
29197;BME280;62796;42.654;23.316;2023-04-19T07:18:01;94188.38;;;13.72;52.17
29197;BME280;62796;42.654;23.316;2023-04-19T07:20:26;94196.19;;;13.74;51.57
29197;BME280;62796;42.654;23.316;2023-04-19T07:22:51;94184.34;;;13.73;51.81
29197;BME280;62796;42.654;23.316;2023-04-19T07:25:17;94195.66;;;13.81;51.95
29197;BME280;62796;42.654;23.316;2023-04-19T07:27:42;94194.13;;;13.85;51.28
29197;BME280;62796;42.654;23.316;2023-04-19T07:30:08;94187.78;;;13.91;50.96
29197;BME280;62796;42.654;23.316;2023-04-19T07:32:34;94196.28;;;14.04;50.79
29197;BME280;62796;42.654;23.316;2023-04-19T07:35:00;94195.47;;;14.14;50.69
29197;BME280;62796;42.654;23.316;2023-04-19T07:37:25;94186.31;;;14.19;50.19
29197;BME280;62796;42.654;23.316;2023-04-19T07:39:51;94185.47;;;14.30;49.94
29197;BME280;62796;42.654;23.316;2023-04-19T07:42:16;94192.50;;;14.42;49.84
29197;BME280;62796;42.654;23.316;2023-04-19T07:44:41;94200.06;;;14.47;49.52
29197;BME280;62796;42.654;23.316;2023-04-19T07:47:07;94194.00;;;14.43;49.87
29197;BME280;62796;42.654;23.316;2023-04-19T07:49:32;94194.34;;;14.28;50.12
29197;BME280;62796;42.654;23.316;2023-04-19T07:51:59;94199.00;;;13.68;52.00
29197;BME280;62796;42.654;23.316;2023-04-19T07:54:26;94195.91;;;13.83;51.54
29197;BME280;62796;42.654;23.316;2023-04-19T07:56:51;94198.91;;;13.91;51.66
29197;BME280;62796;42.654;23.316;2023-04-19T07:59:16;94192.06;;;13.92;51.30
29197;BME280;62796;42.654;23.316;2023-04-19T08:01:42;94197.53;;;13.67;51.93
29197;BME280;62796;42.654;23.316;2023-04-19T08:04:07;94198.22;;;13.79;52.09
29197;BME280;62796;42.654;23.316;2023-04-19T08:06:33;94187.34;;;13.75;52.11
29197;BME280;62796;42.654;23.316;2023-04-19T08:08:58;94192.31;;;13.94;52.10
29197;BME280;62796;42.654;23.316;2023-04-19T08:11:24;94192.41;;;14.18;51.27
29197;BME280;62796;42.654;23.316;2023-04-19T08:13:50;94193.84;;;14.30;50.58
29197;BME280;62796;42.654;23.316;2023-04-19T08:16:15;94179.91;;;14.30;50.20
29197;BME280;62796;42.654;23.316;2023-04-19T08:18:40;94189.00;;;14.36;49.87
29197;BME280;62796;42.654;23.316;2023-04-19T08:21:06;94184.94;;;14.37;50.20
29197;BME280;62796;42.654;23.316;2023-04-19T08:23:31;94195.84;;;14.29;50.85
29197;BME280;62796;42.654;23.316;2023-04-19T08:25:57;94183.97;;;14.29;50.31
29197;BME280;62796;42.654;23.316;2023-04-19T08:28:22;94191.00;;;14.41;49.94
29197;BME280;62796;42.654;23.316;2023-04-19T08:30:48;94189.72;;;14.42;49.70
29197;BME280;62796;42.654;23.316;2023-04-19T08:33:14;94187.66;;;14.43;49.52
29197;BME280;62796;42.654;23.316;2023-04-19T08:35:40;94189.72;;;14.42;49.70
29197;BME280;62796;42.654;23.316;2023-04-19T08:38:06;94189.50;;;14.34;50.25
29197;BME280;62796;42.654;23.316;2023-04-19T08:40:32;94181.91;;;14.35;50.13
29197;BME280;62796;42.654;23.316;2023-04-19T08:42:57;94177.34;;;14.32;49.88
29197;BME280;62796;42.654;23.316;2023-04-19T08:45:25;94188.16;;;14.47;49.82
29197;BME280;62796;42.654;23.316;2023-04-19T08:47:53;94172.69;;;14.51;49.70
29197;BME280;62796;42.654;23.316;2023-04-19T08:50:19;94179.75;;;14.52;49.71
29197;BME280;62796;42.654;23.316;2023-04-19T08:52:46;94176.16;;;14.57;49.75
29197;BME280;62796;42.654;23.316;2023-04-19T08:55:11;94180.69;;;14.60;49.59
29197;BME280;62796;42.654;23.316;2023-04-19T08:57:37;94173.28;;;14.68;49.46
29197;BME280;62796;42.654;23.316;2023-04-19T09:00:03;94173.47;;;14.46;49.74
29197;BME280;62796;42.654;23.316;2023-04-19T09:02:51;94169.34;;;14.53;49.44
29197;BME280;62796;42.654;23.316;2023-04-19T09:05:19;94163.97;;;14.60;49.35
29197;BME280;62796;42.654;23.316;2023-04-19T09:07:45;94167.94;;;14.70;49.52
29197;BME280;62796;42.654;23.316;2023-04-19T09:10:16;94160.31;;;14.71;49.20
29197;BME280;62796;42.654;23.316;2023-04-19T09:12:58;94168.84;;;14.78;48.69
29197;BME280;62796;42.654;23.316;2023-04-19T09:15:39;94153.75;;;15.17;48.16
29197;BME280;62796;42.654;23.316;2023-04-19T09:18:07;94154.81;;;15.14;47.56
29197;BME280;62796;42.654;23.316;2023-04-19T09:20:37;94146.38;;;15.19;46.86
29197;BME280;62796;42.654;23.316;2023-04-19T09:23:05;94152.72;;;15.20;46.66
29197;BME280;62796;42.654;23.316;2023-04-19T09:25:31;94151.78;;;15.12;46.50
29197;BME280;62796;42.654;23.316;2023-04-19T09:28:13;94149.47;;;15.16;46.72
29197;BME280;62796;42.654;23.316;2023-04-19T09:30:39;94151.34;;;15.08;46.71
29197;BME280;62796;42.654;23.316;2023-04-19T09:33:05;94161.19;;;14.84;47.74
29197;BME280;62796;42.654;23.316;2023-04-19T09:35:41;94162.50;;;15.08;47.24
29197;BME280;62796;42.654;23.316;2023-04-19T09:38:08;94157.19;;;15.28;46.67
29197;BME280;62796;42.654;23.316;2023-04-19T09:40:33;94157.09;;;15.34;46.68
29197;BME280;62796;42.654;23.316;2023-04-19T09:42:59;94144.63;;;15.59;46.41
29197;BME280;62796;42.654;23.316;2023-04-19T09:45:26;94143.66;;;15.75;45.98
29197;BME280;62796;42.654;23.316;2023-04-19T09:48:03;94146.28;;;15.86;45.77
29197;BME280;62796;42.654;23.316;2023-04-19T09:50:29;94137.50;;;16.14;44.94
29197;BME280;62796;42.654;23.316;2023-04-19T09:52:55;94150.47;;;16.30;44.25
29197;BME280;62796;42.654;23.316;2023-04-19T09:55:21;94137.94;;;16.50;43.44
29197;BME280;62796;42.654;23.316;2023-04-19T09:57:48;94134.34;;;16.68;42.79
29197;BME280;62796;42.654;23.316;2023-04-19T10:00:13;94127.41;;;17.01;41.82
29197;BME280;62796;42.654;23.316;2023-04-19T10:02:40;94125.09;;;17.52;41.41
29197;BME280;62796;42.654;23.316;2023-04-19T10:05:07;94117.97;;;17.77;40.56
29197;BME280;62796;42.654;23.316;2023-04-19T10:07:34;94119.03;;;17.87;39.59
29197;BME280;62796;42.654;23.316;2023-04-19T10:10:01;94120.72;;;18.03;39.51
29197;BME280;62796;42.654;23.316;2023-04-19T10:12:27;94126.00;;;18.28;40.04
29197;BME280;62796;42.654;23.316;2023-04-19T10:14:54;94121.03;;;18.54;38.65
29197;BME280;62796;42.654;23.316;2023-04-19T10:17:22;94120.06;;;18.52;36.87
29197;BME280;62796;42.654;23.316;2023-04-19T10:19:49;94118.44;;;18.56;37.19
29197;BME280;62796;42.654;23.316;2023-04-19T10:22:16;94123.56;;;17.77;37.39
29197;BME280;62796;42.654;23.316;2023-04-19T10:25:09;94108.75;;;17.43;38.68
29197;BME280;62796;42.654;23.316;2023-04-19T10:27:39;94110.25;;;17.70;39.19
29197;BME280;62796;42.654;23.316;2023-04-19T10:30:05;94114.50;;;18.39;37.94
29197;BME280;62796;42.654;23.316;2023-04-19T10:32:42;94103.00;;;18.91;37.61
29197;BME280;62796;42.654;23.316;2023-04-19T10:35:28;94109.38;;;19.20;36.81
29197;BME280;62796;42.654;23.316;2023-04-19T10:40:59;94100.69;;;19.10;37.18
29197;BME280;62796;42.654;23.316;2023-04-19T10:43:34;94089.09;;;19.42;36.50
29197;BME280;62796;42.654;23.316;2023-04-19T10:46:07;94083.19;;;19.53;35.71
29197;BME280;62796;42.654;23.316;2023-04-19T10:48:35;94085.09;;;19.66;34.57
29197;BME280;62796;42.654;23.316;2023-04-19T10:51:16;94076.13;;;19.75;34.58
29197;BME280;62796;42.654;23.316;2023-04-19T10:56:12;94083.34;;;20.06;34.22
29197;BME280;62796;42.654;23.316;2023-04-19T11:04:04;94053.81;;;20.81;33.17
29197;BME280;62796;42.654;23.316;2023-04-19T11:06:31;94071.41;;;20.89;32.15
29197;BME280;62796;42.654;23.316;2023-04-19T11:08:57;94067.50;;;20.54;32.32
29197;BME280;62796;42.654;23.316;2023-04-19T11:11:23;94070.31;;;20.62;32.71
29197;BME280;62796;42.654;23.316;2023-04-19T11:13:55;94068.97;;;20.85;31.91
29197;BME280;62796;42.654;23.316;2023-04-19T11:16:22;94073.28;;;20.94;31.50
29197;BME280;62796;42.654;23.316;2023-04-19T11:18:47;94072.53;;;21.01;31.48
29197;BME280;62796;42.654;23.316;2023-04-19T11:21:13;94066.88;;;21.31;30.92
29197;BME280;62796;42.654;23.316;2023-04-19T11:23:39;94063.47;;;21.40;30.42
29197;BME280;62796;42.654;23.316;2023-04-19T11:26:08;94060.06;;;21.49;30.40
29197;BME280;62796;42.654;23.316;2023-04-19T11:28:34;94072.16;;;21.75;30.81
29197;BME280;62796;42.654;23.316;2023-04-19T11:30:59;94057.41;;;21.51;30.76
29197;BME280;62796;42.654;23.316;2023-04-19T11:33:25;94058.13;;;21.60;30.13
29197;BME280;62796;42.654;23.316;2023-04-19T11:35:52;94054.63;;;21.84;30.59
29197;BME280;62796;42.654;23.316;2023-04-19T11:38:18;94060.84;;;21.90;29.86
29197;BME280;62796;42.654;23.316;2023-04-19T11:40:43;94065.34;;;21.85;29.18
29197;BME280;62796;42.654;23.316;2023-04-19T11:43:08;94055.78;;;21.81;29.09
29197;BME280;62796;42.654;23.316;2023-04-19T11:45:36;94059.81;;;22.10;28.74
29197;BME280;62796;42.654;23.316;2023-04-19T11:48:14;94054.50;;;22.14;28.60
29197;BME280;62796;42.654;23.316;2023-04-19T11:50:41;94051.06;;;21.83;28.75
29197;BME280;62796;42.654;23.316;2023-04-19T11:53:27;94052.31;;;22.05;28.42
29197;BME280;62796;42.654;23.316;2023-04-19T11:55:54;94047.66;;;21.52;29.71
29197;BME280;62796;42.654;23.316;2023-04-19T12:01:06;94038.06;;;21.95;27.71
29197;BME280;62796;42.654;23.316;2023-04-19T12:03:32;94031.78;;;22.12;27.29
29197;BME280;62796;42.654;23.316;2023-04-19T12:05:59;94045.66;;;22.18;26.94
29197;BME280;62796;42.654;23.316;2023-04-19T12:08:34;94043.00;;;22.44;27.44
29197;BME280;62796;42.654;23.316;2023-04-19T12:11:01;94034.72;;;22.46;27.47
29197;BME280;62796;42.654;23.316;2023-04-19T12:13:28;94033.16;;;22.53;27.03
29197;BME280;62796;42.654;23.316;2023-04-19T12:15:54;94034.38;;;22.18;27.46
29197;BME280;62796;42.654;23.316;2023-04-19T12:18:21;94031.16;;;22.21;27.32
29197;BME280;62796;42.654;23.316;2023-04-19T12:20:48;94034.97;;;22.66;27.50
29197;BME280;62796;42.654;23.316;2023-04-19T12:23:16;94035.97;;;22.28;27.86
29197;BME280;62796;42.654;23.316;2023-04-19T12:25:43;94035.53;;;22.39;28.19
29197;BME280;62796;42.654;23.316;2023-04-19T12:28:09;94025.91;;;22.18;27.60
29197;BME280;62796;42.654;23.316;2023-04-19T12:30:35;94024.53;;;20.31;30.27
29197;BME280;62796;42.654;23.316;2023-04-19T12:33:01;94024.00;;;20.48;30.12
29197;BME280;62796;42.654;23.316;2023-04-19T12:35:27;94021.91;;;20.56;30.08
29197;BME280;62796;42.654;23.316;2023-04-19T12:37:54;94021.88;;;20.18;29.49
29197;BME280;62796;42.654;23.316;2023-04-19T12:40:20;94015.47;;;19.87;30.13
29197;BME280;62796;42.654;23.316;2023-04-19T12:42:47;94017.38;;;20.22;29.84
29197;BME280;62796;42.654;23.316;2023-04-19T12:45:13;94018.19;;;20.61;29.89
29197;BME280;62796;42.654;23.316;2023-04-19T12:47:39;94016.97;;;21.09;29.55
29197;BME280;62796;42.654;23.316;2023-04-19T12:50:06;94021.88;;;20.86;30.37
29197;BME280;62796;42.654;23.316;2023-04-19T12:52:31;94015.22;;;21.36;29.21
29197;BME280;62796;42.654;23.316;2023-04-19T12:54:57;94014.84;;;21.80;29.23
29197;BME280;62796;42.654;23.316;2023-04-19T12:57:22;94018.91;;;21.94;29.01
29197;BME280;62796;42.654;23.316;2023-04-19T12:59:48;94010.03;;;21.65;28.94